sensor_id;sensor_type;location;lat;lon;timestamp;temperature;humidity
25300;DHT22;13241;51.208;4.432;2023-02-01T00:01:19;6.60;99.90
25300;DHT22;13241;51.208;4.432;2023-02-01T00:03:46;6.60;99.90
25300;DHT22;13241;51.208;4.432;2023-02-01T00:06:13;6.70;99.90
25300;DHT22;13241;51.208;4.432;2023-02-01T00:08:40;6.80;99.90
25300;DHT22;13241;51.208;4.432;2023-02-01T00:11:08;6.80;99.90
25300;DHT22;13241;51.208;4.432;2023-02-01T00:13:36;6.80;99.90
25300;DHT22;13241;51.208;4.432;2023-02-01T00:16:27;6.80;99.90
25300;DHT22;13241;51.208;4.432;2023-02-01T00:18:59;6.70;99.90
25300;DHT22;13241;51.208;4.432;2023-02-01T00:21:26;6.60;99.90
25300;DHT22;13241;51.208;4.432;2023-02-01T00:23:53;6.50;99.90
25300;DHT22;13241;51.208;4.432;2023-02-01T00:26:22;6.40;99.90
25300;DHT22;13241;51.208;4.432;2023-02-01T00:28:49;6.60;99.90
25300;DHT22;13241;51.208;4.432;2023-02-01T00:31:16;6.30;99.90
25300;DHT22;13241;51.208;4.432;2023-02-01T00:33:48;6.30;99.90
25300;DHT22;13241;51.208;4.432;2023-02-01T00:36:15;6.30;99.90
25300;DHT22;13241;51.208;4.432;2023-02-01T00:38:42;6.30;99.90
25300;DHT22;13241;51.208;4.432;2023-02-01T00:41:10;6.20;99.90
25300;DHT22;13241;51.208;4.432;2023-02-01T00:43:37;6.20;99.90
25300;DHT22;13241;51.208;4.432;2023-02-01T00:46:04;6.20;99.90
25300;DHT22;13241;51.208;4.432;2023-02-01T00:48:31;6.10;99.90
25300;DHT22;13241;51.208;4.432;2023-02-01T00:50:59;6.10;99.90
25300;DHT22;13241;51.208;4.432;2023-02-01T00:53:27;6.10;99.90
25300;DHT22;13241;51.208;4.432;2023-02-01T00:55:54;6.20;99.90
25300;DHT22;13241;51.208;4.432;2023-02-01T00:58:21;6.10;99.90
25300;DHT22;13241;51.208;4.432;2023-02-01T01:00:49;6.20;99.90
25300;DHT22;13241;51.208;4.432;2023-02-01T01:03:16;6.30;99.90
25300;DHT22;13241;51.208;4.432;2023-02-01T01:05:48;6.30;99.90
25300;DHT22;13241;51.208;4.432;2023-02-01T01:08:15;6.30;99.90
25300;DHT22;13241;51.208;4.432;2023-02-01T01:10:42;6.30;99.90
25300;DHT22;13241;51.208;4.432;2023-02-01T01:13:10;6.20;99.90
25300;DHT22;13241;51.208;4.432;2023-02-01T01:15:39;6.20;99.90
25300;DHT22;13241;51.208;4.432;2023-02-01T01:18:07;6.10;99.90
25300;DHT22;13241;51.208;4.432;2023-02-01T01:20:35;6.10;99.90
25300;DHT22;13241;51.208;4.432;2023-02-01T01:23:09;6.30;99.90
25300;DHT22;13241;51.208;4.432;2023-02-01T01:25:37;6.10;99.90
25300;DHT22;13241;51.208;4.432;2023-02-01T01:28:04;6.10;99.90
25300;DHT22;13241;51.208;4.432;2023-02-01T01:30:31;6.10;99.90
25300;DHT22;13241;51.208;4.432;2023-02-01T01:32:57;6.20;99.90
25300;DHT22;13241;51.208;4.432;2023-02-01T01:35:24;6.20;99.90
25300;DHT22;13241;51.208;4.432;2023-02-01T01:37:51;6.10;99.90
25300;DHT22;13241;51.208;4.432;2023-02-01T01:40:17;6.10;99.90
25300;DHT22;13241;51.208;4.432;2023-02-01T01:42:44;6.20;99.90
25300;DHT22;13241;51.208;4.432;2023-02-01T01:45:19;6.10;99.90
25300;DHT22;13241;51.208;4.432;2023-02-01T01:47:54;6.10;99.90
25300;DHT22;13241;51.208;4.432;2023-02-01T01:50:27;6.00;99.90
25300;DHT22;13241;51.208;4.432;2023-02-01T01:52:55;6.00;99.90
25300;DHT22;13241;51.208;4.432;2023-02-01T01:55:24;6.10;99.90
25300;DHT22;13241;51.208;4.432;2023-02-01T01:57:55;6.10;99.90
25300;DHT22;13241;51.208;4.432;2023-02-01T02:00:22;6.00;99.90
25300;DHT22;13241;51.208;4.432;2023-02-01T02:02:54;6.00;99.90
25300;DHT22;13241;51.208;4.432;2023-02-01T02:05:23;6.00;99.90
25300;DHT22;13241;51.208;4.432;2023-02-01T02:07:50;6.00;99.90
25300;DHT22;13241;51.208;4.432;2023-02-01T02:10:17;6.10;99.90
25300;DHT22;13241;51.208;4.432;2023-02-01T02:12:46;6.10;99.90
25300;DHT22;13241;51.208;4.432;2023-02-01T02:15:16;6.00;99.90
25300;DHT22;13241;51.208;4.432;2023-02-01T02:22:43;6.00;99.90
25300;DHT22;13241;51.208;4.432;2023-02-01T02:27:46;6.00;99.90
25300;DHT22;13241;51.208;4.432;2023-02-01T02:30:22;5.90;99.90
25300;DHT22;13241;51.208;4.432;2023-02-01T02:35:29;5.80;99.90
25300;DHT22;13241;51.208;4.432;2023-02-01T02:38:02;5.80;99.90
25300;DHT22;13241;51.208;4.432;2023-02-01T02:40:33;5.80;99.90
25300;DHT22;13241;51.208;4.432;2023-02-01T02:48:49;5.90;99.90
25300;DHT22;13241;51.208;4.432;2023-02-01T02:51:22;5.80;99.90
25300;DHT22;13241;51.208;4.432;2023-02-01T02:54:10;5.90;99.90
25300;DHT22;13241;51.208;4.432;2023-02-01T02:56:58;5.90;99.90
25300;DHT22;13241;51.208;4.432;2023-02-01T02:59:45;6.00;99.90
25300;DHT22;13241;51.208;4.432;2023-02-01T03:02:32;6.00;99.90
25300;DHT22;13241;51.208;4.432;2023-02-01T03:05:19;6.00;99.90
25300;DHT22;13241;51.208;4.432;2023-02-01T03:07:57;6.00;99.90
25300;DHT22;13241;51.208;4.432;2023-02-01T03:10:37;6.00;99.90
25300;DHT22;13241;51.208;4.432;2023-02-01T03:13:55;6.00;99.90
25300;DHT22;13241;51.208;4.432;2023-02-01T03:16:00;6.00;99.90
25300;DHT22;13241;51.208;4.432;2023-02-01T03:21:16;6.00;99.90
25300;DHT22;13241;51.208;4.432;2023-02-01T03:23:46;6.00;99.90
25300;DHT22;13241;51.208;4.432;2023-02-01T03:26:14;6.00;99.90
25300;DHT22;13241;51.208;4.432;2023-02-01T03:28:44;5.90;99.90
25300;DHT22;13241;51.208;4.432;2023-02-01T03:31:15;5.90;99.90
25300;DHT22;13241;51.208;4.432;2023-02-01T03:33:41;5.90;99.90
25300;DHT22;13241;51.208;4.432;2023-02-01T03:41:19;5.80;99.90
25300;DHT22;13241;51.208;4.432;2023-02-01T03:46:17;5.70;99.90
25300;DHT22;13241;51.208;4.432;2023-02-01T03:48:45;5.70;99.90
25300;DHT22;13241;51.208;4.432;2023-02-01T03:51:12;5.70;99.90
25300;DHT22;13241;51.208;4.432;2023-02-01T03:53:40;5.70;99.90
25300;DHT22;13241;51.208;4.432;2023-02-01T03:56:09;5.70;99.90
25300;DHT22;13241;51.208;4.432;2023-02-01T03:58:38;5.70;99.90
25300;DHT22;13241;51.208;4.432;2023-02-01T04:01:05;5.70;99.90
25300;DHT22;13241;51.208;4.432;2023-02-01T04:03:35;5.70;99.90
25300;DHT22;13241;51.208;4.432;2023-02-01T04:06:02;5.60;99.90
25300;DHT22;13241;51.208;4.432;2023-02-01T04:08:29;5.70;99.90
25300;DHT22;13241;51.208;4.432;2023-02-01T04:10:55;5.70;99.90
25300;DHT22;13241;51.208;4.432;2023-02-01T04:13:22;5.70;99.90
25300;DHT22;13241;51.208;4.432;2023-02-01T04:15:49;5.80;99.90
25300;DHT22;13241;51.208;4.432;2023-02-01T04:18:18;5.60;99.90
25300;DHT22;13241;51.208;4.432;2023-02-01T04:20:45;5.60;99.90
25300;DHT22;13241;51.208;4.432;2023-02-01T04:23:14;5.60;99.90
25300;DHT22;13241;51.208;4.432;2023-02-01T04:25:43;5.70;99.90
25300;DHT22;13241;51.208;4.432;2023-02-01T04:28:09;5.80;99.90
25300;DHT22;13241;51.208;4.432;2023-02-01T04:30:36;5.70;99.90
25300;DHT22;13241;51.208;4.432;2023-02-01T04:33:05;5.60;99.90
25300;DHT22;13241;51.208;4.432;2023-02-01T04:35:32;5.60;99.90
25300;DHT22;13241;51.208;4.432;2023-02-01T04:37:59;5.60;99.90
25300;DHT22;13241;51.208;4.432;2023-02-01T04:40:26;5.60;99.90
25300;DHT22;13241;51.208;4.432;2023-02-01T04:42:53;5.60;99.90
25300;DHT22;13241;51.208;4.432;2023-02-01T04:45:19;5.60;99.90
25300;DHT22;13241;51.208;4.432;2023-02-01T04:47:46;5.60;99.90
25300;DHT22;13241;51.208;4.432;2023-02-01T04:50:15;5.60;99.90
25300;DHT22;13241;51.208;4.432;2023-02-01T04:52:42;5.60;99.90
25300;DHT22;13241;51.208;4.432;2023-02-01T04:55:11;5.60;99.90
25300;DHT22;13241;51.208;4.432;2023-02-01T04:57:39;5.60;99.90
25300;DHT22;13241;51.208;4.432;2023-02-01T05:00:07;5.60;99.90
25300;DHT22;13241;51.208;4.432;2023-02-01T05:02:34;5.60;99.90
25300;DHT22;13241;51.208;4.432;2023-02-01T05:05:04;5.50;99.90
25300;DHT22;13241;51.208;4.432;2023-02-01T05:07:31;5.50;99.90
25300;DHT22;13241;51.208;4.432;2023-02-01T05:09:58;5.50;99.90
25300;DHT22;13241;51.208;4.432;2023-02-01T05:12:24;5.50;99.90
25300;DHT22;13241;51.208;4.432;2023-02-01T05:15:10;5.50;99.90
25300;DHT22;13241;51.208;4.432;2023-02-01T05:17:37;5.60;99.90
25300;DHT22;13241;51.208;4.432;2023-02-01T05:20:07;5.50;99.90
25300;DHT22;13241;51.208;4.432;2023-02-01T05:22:34;5.50;99.90
25300;DHT22;13241;51.208;4.432;2023-02-01T05:25:00;5.50;99.90
25300;DHT22;13241;51.208;4.432;2023-02-01T05:27:28;5.50;99.90
25300;DHT22;13241;51.208;4.432;2023-02-01T05:29:55;5.50;99.90
25300;DHT22;13241;51.208;4.432;2023-02-01T05:32:22;5.50;99.90
25300;DHT22;13241;51.208;4.432;2023-02-01T05:34:49;5.40;99.90
25300;DHT22;13241;51.208;4.432;2023-02-01T05:37:16;5.40;99.90
25300;DHT22;13241;51.208;4.432;2023-02-01T05:39:42;5.40;99.90
25300;DHT22;13241;51.208;4.432;2023-02-01T05:42:09;5.50;99.90
25300;DHT22;13241;51.208;4.432;2023-02-01T05:44:36;5.40;99.90
25300;DHT22;13241;51.208;4.432;2023-02-01T05:47:02;5.40;99.90
25300;DHT22;13241;51.208;4.432;2023-02-01T05:49:29;5.40;99.90
25300;DHT22;13241;51.208;4.432;2023-02-01T05:51:56;5.30;99.90
25300;DHT22;13241;51.208;4.432;2023-02-01T05:54:25;5.30;99.90
25300;DHT22;13241;51.208;4.432;2023-02-01T05:56:52;5.30;99.90
25300;DHT22;13241;51.208;4.432;2023-02-01T05:59:19;5.40;99.90
25300;DHT22;13241;51.208;4.432;2023-02-01T06:01:53;5.40;99.90
25300;DHT22;13241;51.208;4.432;2023-02-01T06:04:21;5.40;99.90
25300;DHT22;13241;51.208;4.432;2023-02-01T06:06:47;5.40;99.90
25300;DHT22;13241;51.208;4.432;2023-02-01T06:09:17;5.30;99.90
25300;DHT22;13241;51.208;4.432;2023-02-01T06:11:43;5.30;99.90
25300;DHT22;13241;51.208;4.432;2023-02-01T06:14:12;5.40;99.90
25300;DHT22;13241;51.208;4.432;2023-02-01T06:16:41;5.30;99.90
25300;DHT22;13241;51.208;4.432;2023-02-01T06:19:08;5.40;99.90
25300;DHT22;13241;51.208;4.432;2023-02-01T06:21:35;5.30;99.90
25300;DHT22;13241;51.208;4.432;2023-02-01T06:24:05;5.30;99.90
25300;DHT22;13241;51.208;4.432;2023-02-01T06:26:32;5.30;99.90
25300;DHT22;13241;51.208;4.432;2023-02-01T06:28:59;5.20;99.90
25300;DHT22;13241;51.208;4.432;2023-02-01T06:31:26;5.20;99.90
25300;DHT22;13241;51.208;4.432;2023-02-01T06:33:53;5.20;99.90
25300;DHT22;13241;51.208;4.432;2023-02-01T06:36:20;5.30;99.90
25300;DHT22;13241;51.208;4.432;2023-02-01T06:38:47;5.30;99.90
25300;DHT22;13241;51.208;4.432;2023-02-01T06:41:14;5.30;99.90
25300;DHT22;13241;51.208;4.432;2023-02-01T06:43:41;5.20;99.90
25300;DHT22;13241;51.208;4.432;2023-02-01T06:46:09;5.20;99.90
25300;DHT22;13241;51.208;4.432;2023-02-01T06:48:36;5.20;99.90
25300;DHT22;13241;51.208;4.432;2023-02-01T06:51:06;5.10;99.90
25300;DHT22;13241;51.208;4.432;2023-02-01T06:53:32;5.10;99.90
25300;DHT22;13241;51.208;4.432;2023-02-01T06:56:02;5.10;99.90
25300;DHT22;13241;51.208;4.432;2023-02-01T06:58:32;5.10;99.90
25300;DHT22;13241;51.208;4.432;2023-02-01T07:01:08;5.20;99.90
25300;DHT22;13241;51.208;4.432;2023-02-01T07:03:35;5.20;99.90
25300;DHT22;13241;51.208;4.432;2023-02-01T07:06:11;5.20;99.90
25300;DHT22;13241;51.208;4.432;2023-02-01T07:08:45;5.20;99.90
25300;DHT22;13241;51.208;4.432;2023-02-01T07:11:12;5.20;99.90
25300;DHT22;13241;51.208;4.432;2023-02-01T07:13:39;5.30;99.90
25300;DHT22;13241;51.208;4.432;2023-02-01T07:16:08;5.30;99.90
25300;DHT22;13241;51.208;4.432;2023-02-01T07:18:35;5.30;99.90
25300;DHT22;13241;51.208;4.432;2023-02-01T07:21:02;5.40;99.90
25300;DHT22;13241;51.208;4.432;2023-02-01T07:23:29;5.40;99.90
25300;DHT22;13241;51.208;4.432;2023-02-01T07:25:56;5.40;99.90
25300;DHT22;13241;51.208;4.432;2023-02-01T07:28:23;5.30;99.90
25300;DHT22;13241;51.208;4.432;2023-02-01T07:30:51;5.30;99.90
25300;DHT22;13241;51.208;4.432;2023-02-01T07:33:19;5.30;99.90
25300;DHT22;13241;51.208;4.432;2023-02-01T07:35:46;5.30;99.90
25300;DHT22;13241;51.208;4.432;2023-02-01T07:38:13;5.40;99.90
25300;DHT22;13241;51.208;4.432;2023-02-01T07:40:40;5.40;99.90
25300;DHT22;13241;51.208;4.432;2023-02-01T07:43:07;5.40;99.90
25300;DHT22;13241;51.208;4.432;2023-02-01T07:45:34;5.40;99.90
25300;DHT22;13241;51.208;4.432;2023-02-01T07:48:02;5.40;99.90
25300;DHT22;13241;51.208;4.432;2023-02-01T07:50:29;5.50;99.90
25300;DHT22;13241;51.208;4.432;2023-02-01T07:53:00;5.50;99.90
25300;DHT22;13241;51.208;4.432;2023-02-01T07:55:27;5.60;99.90
25300;DHT22;13241;51.208;4.432;2023-02-01T07:57:56;5.60;99.90
25300;DHT22;13241;51.208;4.432;2023-02-01T08:00:23;5.70;99.90
25300;DHT22;13241;51.208;4.432;2023-02-01T08:03:19;5.80;99.90
25300;DHT22;13241;51.208;4.432;2023-02-01T08:05:46;5.80;99.90
25300;DHT22;13241;51.208;4.432;2023-02-01T08:08:13;6.00;99.90
25300;DHT22;13241;51.208;4.432;2023-02-01T08:10:39;6.10;99.90
25300;DHT22;13241;51.208;4.432;2023-02-01T08:13:06;6.20;99.90
25300;DHT22;13241;51.208;4.432;2023-02-01T08:15:33;6.20;99.90
25300;DHT22;13241;51.208;4.432;2023-02-01T08:17:59;6.30;99.90
25300;DHT22;13241;51.208;4.432;2023-02-01T08:20:28;6.40;99.90
25300;DHT22;13241;51.208;4.432;2023-02-01T08:22:56;6.40;99.90
25300;DHT22;13241;51.208;4.432;2023-02-01T08:25:23;6.40;99.90
25300;DHT22;13241;51.208;4.432;2023-02-01T08:27:50;6.40;99.90
25300;DHT22;13241;51.208;4.432;2023-02-01T08:30:17;6.50;99.90
25300;DHT22;13241;51.208;4.432;2023-02-01T08:32:44;6.40;99.90
25300;DHT22;13241;51.208;4.432;2023-02-01T08:35:11;6.50;99.90
25300;DHT22;13241;51.208;4.432;2023-02-01T08:37:38;6.50;99.90
25300;DHT22;13241;51.208;4.432;2023-02-01T08:40:05;6.60;99.90
25300;DHT22;13241;51.208;4.432;2023-02-01T08:42:32;6.60;99.90
25300;DHT22;13241;51.208;4.432;2023-02-01T08:47:47;6.70;99.90
25300;DHT22;13241;51.208;4.432;2023-02-01T08:50:14;6.60;99.90
25300;DHT22;13241;51.208;4.432;2023-02-01T08:52:41;6.80;99.90
25300;DHT22;13241;51.208;4.432;2023-02-01T08:55:08;6.80;99.90
25300;DHT22;13241;51.208;4.432;2023-02-01T08:57:35;6.90;99.90
25300;DHT22;13241;51.208;4.432;2023-02-01T09:00:03;7.00;99.90
25300;DHT22;13241;51.208;4.432;2023-02-01T09:02:31;7.00;99.90
25300;DHT22;13241;51.208;4.432;2023-02-01T09:04:58;7.00;99.90
25300;DHT22;13241;51.208;4.432;2023-02-01T09:07:27;7.10;99.90
25300;DHT22;13241;51.208;4.432;2023-02-01T09:09:54;7.10;99.90
25300;DHT22;13241;51.208;4.432;2023-02-01T09:12:22;7.10;99.90
25300;DHT22;13241;51.208;4.432;2023-02-01T09:14:49;7.00;99.90
25300;DHT22;13241;51.208;4.432;2023-02-01T09:17:16;7.00;99.90
25300;DHT22;13241;51.208;4.432;2023-02-01T09:19:42;7.00;99.90
25300;DHT22;13241;51.208;4.432;2023-02-01T09:22:09;7.10;99.90
25300;DHT22;13241;51.208;4.432;2023-02-01T09:24:36;7.10;99.90
25300;DHT22;13241;51.208;4.432;2023-02-01T09:27:02;7.10;99.90
25300;DHT22;13241;51.208;4.432;2023-02-01T09:29:29;7.20;99.90
25300;DHT22;13241;51.208;4.432;2023-02-01T09:31:56;7.20;99.90
25300;DHT22;13241;51.208;4.432;2023-02-01T09:34:30;7.30;99.90
25300;DHT22;13241;51.208;4.432;2023-02-01T09:36:56;7.40;99.90
25300;DHT22;13241;51.208;4.432;2023-02-01T09:39:23;7.40;99.90
25300;DHT22;13241;51.208;4.432;2023-02-01T09:47:11;7.60;99.90
25300;DHT22;13241;51.208;4.432;2023-02-01T09:49:39;7.80;99.90
25300;DHT22;13241;51.208;4.432;2023-02-01T09:52:11;7.80;99.90
25300;DHT22;13241;51.208;4.432;2023-02-01T09:54:44;7.90;99.90
25300;DHT22;13241;51.208;4.432;2023-02-01T09:57:18;7.90;99.90
25300;DHT22;13241;51.208;4.432;2023-02-01T09:59:52;7.90;99.90
25300;DHT22;13241;51.208;4.432;2023-02-01T10:02:25;8.00;99.90
25300;DHT22;13241;51.208;4.432;2023-02-01T10:04:57;8.00;99.90
25300;DHT22;13241;51.208;4.432;2023-02-01T10:12:33;8.50;99.90
25300;DHT22;13241;51.208;4.432;2023-02-01T10:15:12;8.90;99.90
25300;DHT22;13241;51.208;4.432;2023-02-01T10:23:10;9.40;99.90
25300;DHT22;13241;51.208;4.432;2023-02-01T10:26:18;9.40;99.90
25300;DHT22;13241;51.208;4.432;2023-02-01T10:28:52;9.30;99.90
25300;DHT22;13241;51.208;4.432;2023-02-01T10:31:20;9.50;99.90
25300;DHT22;13241;51.208;4.432;2023-02-01T10:33:49;9.60;99.90
25300;DHT22;13241;51.208;4.432;2023-02-01T10:38:45;10.60;99.90
25300;DHT22;13241;51.208;4.432;2023-02-01T10:41:13;10.70;99.90
25300;DHT22;13241;51.208;4.432;2023-02-01T10:43:41;10.90;99.90
25300;DHT22;13241;51.208;4.432;2023-02-01T10:46:08;10.90;99.90
25300;DHT22;13241;51.208;4.432;2023-02-01T10:48:35;10.90;99.90
25300;DHT22;13241;51.208;4.432;2023-02-01T10:55:56;10.70;99.90
25300;DHT22;13241;51.208;4.432;2023-02-01T10:58:29;10.80;99.90
25300;DHT22;13241;51.208;4.432;2023-02-01T11:01:01;10.80;99.90
25300;DHT22;13241;51.208;4.432;2023-02-01T11:06:01;10.50;99.90
25300;DHT22;13241;51.208;4.432;2023-02-01T11:08:29;10.60;99.90
25300;DHT22;13241;51.208;4.432;2023-02-01T11:11:00;10.60;99.90
25300;DHT22;13241;51.208;4.432;2023-02-01T11:13:28;10.50;99.90
25300;DHT22;13241;51.208;4.432;2023-02-01T11:15:56;10.60;99.90
25300;DHT22;13241;51.208;4.432;2023-02-01T11:18:30;10.60;99.90
25300;DHT22;13241;51.208;4.432;2023-02-01T11:20:57;10.60;99.90
25300;DHT22;13241;51.208;4.432;2023-02-01T11:23:26;10.60;99.90
25300;DHT22;13241;51.208;4.432;2023-02-01T11:25:54;10.70;99.90
25300;DHT22;13241;51.208;4.432;2023-02-01T11:28:23;10.50;99.90
25300;DHT22;13241;51.208;4.432;2023-02-01T11:30:50;10.40;99.90
25300;DHT22;13241;51.208;4.432;2023-02-01T11:33:19;10.40;99.90
25300;DHT22;13241;51.208;4.432;2023-02-01T11:35:47;10.40;99.90
25300;DHT22;13241;51.208;4.432;2023-02-01T11:40:48;10.50;99.90
25300;DHT22;13241;51.208;4.432;2023-02-01T11:45:41;10.50;99.90
25300;DHT22;13241;51.208;4.432;2023-02-01T11:48:19;10.60;99.90
25300;DHT22;13241;51.208;4.432;2023-02-01T11:51:13;10.50;99.90
25300;DHT22;13241;51.208;4.432;2023-02-01T11:56:30;10.30;99.90
25300;DHT22;13241;51.208;4.432;2023-02-01T12:06:53;10.30;99.90
25300;DHT22;13241;51.208;4.432;2023-02-01T12:14:45;10.40;99.90
25300;DHT22;13241;51.208;4.432;2023-02-01T12:22:53;10.60;99.90
25300;DHT22;13241;51.208;4.432;2023-02-01T12:28:03;10.60;99.90
25300;DHT22;13241;51.208;4.432;2023-02-01T12:30:37;10.60;99.90
25300;DHT22;13241;51.208;4.432;2023-02-01T12:33:12;10.60;99.90
25300;DHT22;13241;51.208;4.432;2023-02-01T12:35:53;10.60;99.90
25300;DHT22;13241;51.208;4.432;2023-02-01T12:41:32;10.50;99.90
25300;DHT22;13241;51.208;4.432;2023-02-01T12:44:08;10.30;99.90
25300;DHT22;13241;51.208;4.432;2023-02-01T12:46:40;10.20;99.90
25300;DHT22;13241;51.208;4.432;2023-02-01T12:49:27;10.20;99.90
25300;DHT22;13241;51.208;4.432;2023-02-01T12:51:58;10.20;99.90
25300;DHT22;13241;51.208;4.432;2023-02-01T12:57:06;10.30;99.90
25300;DHT22;13241;51.208;4.432;2023-02-01T12:59:38;10.30;99.90
25300;DHT22;13241;51.208;4.432;2023-02-01T13:02:11;10.30;99.90
25300;DHT22;13241;51.208;4.432;2023-02-01T13:07:50;10.30;99.90
25300;DHT22;13241;51.208;4.432;2023-02-01T13:12:59;10.50;99.90
25300;DHT22;13241;51.208;4.432;2023-02-01T13:15:29;10.50;99.90
25300;DHT22;13241;51.208;4.432;2023-02-01T13:18:05;10.50;99.90
25300;DHT22;13241;51.208;4.432;2023-02-01T13:23:10;10.60;99.90
25300;DHT22;13241;51.208;4.432;2023-02-01T13:25:48;10.50;99.90
25300;DHT22;13241;51.208;4.432;2023-02-01T13:28:17;10.50;99.90
25300;DHT22;13241;51.208;4.432;2023-02-01T13:33:31;10.50;99.90
25300;DHT22;13241;51.208;4.432;2023-02-01T13:41:32;10.40;99.90
25300;DHT22;13241;51.208;4.432;2023-02-01T13:44:03;10.40;99.90
25300;DHT22;13241;51.208;4.432;2023-02-01T13:46:46;10.30;99.90
25300;DHT22;13241;51.208;4.432;2023-02-01T13:49:18;10.30;99.90
25300;DHT22;13241;51.208;4.432;2023-02-01T13:51:47;10.30;99.90
25300;DHT22;13241;51.208;4.432;2023-02-01T13:54:31;10.30;99.90
25300;DHT22;13241;51.208;4.432;2023-02-01T13:56:58;10.30;99.90
25300;DHT22;13241;51.208;4.432;2023-02-01T14:04:53;10.30;99.90
25300;DHT22;13241;51.208;4.432;2023-02-01T14:07:21;10.20;99.90
25300;DHT22;13241;51.208;4.432;2023-02-01T14:09:48;10.20;99.90
25300;DHT22;13241;51.208;4.432;2023-02-01T14:18:25;10.10;99.90
25300;DHT22;13241;51.208;4.432;2023-02-01T14:20:50;10.10;99.90
25300;DHT22;13241;51.208;4.432;2023-02-01T14:23:20;10.10;99.90
25300;DHT22;13241;51.208;4.432;2023-02-01T14:25:48;10.00;99.90
25300;DHT22;13241;51.208;4.432;2023-02-01T14:28:26;10.00;99.90
25300;DHT22;13241;51.208;4.432;2023-02-01T14:30:55;10.00;99.90
25300;DHT22;13241;51.208;4.432;2023-02-01T14:33:24;10.00;99.90
25300;DHT22;13241;51.208;4.432;2023-02-01T14:36:02;10.00;99.90
25300;DHT22;13241;51.208;4.432;2023-02-01T14:38:32;9.90;99.90
25300;DHT22;13241;51.208;4.432;2023-02-01T14:49:21;9.90;99.90
25300;DHT22;13241;51.208;4.432;2023-02-01T14:51:48;9.80;99.90
25300;DHT22;13241;51.208;4.432;2023-02-01T14:54:14;9.80;99.90
25300;DHT22;13241;51.208;4.432;2023-02-01T14:56:41;9.70;99.90
25300;DHT22;13241;51.208;4.432;2023-02-01T14:59:12;9.70;99.90
25300;DHT22;13241;51.208;4.432;2023-02-01T15:01:50;9.70;99.90
25300;DHT22;13241;51.208;4.432;2023-02-01T15:04:20;9.70;99.90
25300;DHT22;13241;51.208;4.432;2023-02-01T15:09:29;9.70;99.90
25300;DHT22;13241;51.208;4.432;2023-02-01T15:14:35;9.60;99.90
25300;DHT22;13241;51.208;4.432;2023-02-01T15:17:16;9.70;99.90
25300;DHT22;13241;51.208;4.432;2023-02-01T15:19:56;9.60;99.90
25300;DHT22;13241;51.208;4.432;2023-02-01T15:22:26;9.60;99.90
25300;DHT22;13241;51.208;4.432;2023-02-01T15:24:56;9.60;99.90
25300;DHT22;13241;51.208;4.432;2023-02-01T15:27:25;9.60;99.90
25300;DHT22;13241;51.208;4.432;2023-02-01T15:30:06;9.40;99.90
25300;DHT22;13241;51.208;4.432;2023-02-01T15:32:36;9.50;99.90
25300;DHT22;13241;51.208;4.432;2023-02-01T15:35:05;9.50;99.90
25300;DHT22;13241;51.208;4.432;2023-02-01T15:37:32;9.50;99.90
25300;DHT22;13241;51.208;4.432;2023-02-01T15:42:34;9.40;99.90
25300;DHT22;13241;51.208;4.432;2023-02-01T15:45:01;9.50;99.90
25300;DHT22;13241;51.208;4.432;2023-02-01T15:47:28;9.40;99.90
25300;DHT22;13241;51.208;4.432;2023-02-01T15:49:58;9.40;99.90
25300;DHT22;13241;51.208;4.432;2023-02-01T15:52:35;9.40;99.90
25300;DHT22;13241;51.208;4.432;2023-02-01T15:55:07;9.40;99.90
25300;DHT22;13241;51.208;4.432;2023-02-01T15:57:38;9.30;99.90
25300;DHT22;13241;51.208;4.432;2023-02-01T16:00:07;9.30;99.90
25300;DHT22;13241;51.208;4.432;2023-02-01T16:02:41;9.40;99.90
25300;DHT22;13241;51.208;4.432;2023-02-01T16:05:30;9.40;99.90
25300;DHT22;13241;51.208;4.432;2023-02-01T16:10:31;9.40;99.90
25300;DHT22;13241;51.208;4.432;2023-02-01T16:12:58;9.40;99.90
25300;DHT22;13241;51.208;4.432;2023-02-01T16:15:27;9.40;99.90
25300;DHT22;13241;51.208;4.432;2023-02-01T16:17:56;9.40;99.90
25300;DHT22;13241;51.208;4.432;2023-02-01T16:20:22;9.40;99.90
25300;DHT22;13241;51.208;4.432;2023-02-01T16:22:51;9.40;99.90
25300;DHT22;13241;51.208;4.432;2023-02-01T16:25:19;9.40;99.90
25300;DHT22;13241;51.208;4.432;2023-02-01T16:27:49;9.40;99.90
25300;DHT22;13241;51.208;4.432;2023-02-01T16:30:18;9.30;99.90
25300;DHT22;13241;51.208;4.432;2023-02-01T16:32:52;9.40;99.90
25300;DHT22;13241;51.208;4.432;2023-02-01T16:35:25;9.30;99.90
25300;DHT22;13241;51.208;4.432;2023-02-01T16:37:52;9.30;99.90
25300;DHT22;13241;51.208;4.432;2023-02-01T16:40:20;9.30;99.90
25300;DHT22;13241;51.208;4.432;2023-02-01T16:42:49;9.30;99.90
25300;DHT22;13241;51.208;4.432;2023-02-01T16:45:19;9.30;99.90
25300;DHT22;13241;51.208;4.432;2023-02-01T16:47:49;9.30;99.90
25300;DHT22;13241;51.208;4.432;2023-02-01T16:50:20;9.40;99.90
25300;DHT22;13241;51.208;4.432;2023-02-01T16:52:50;9.40;99.90
25300;DHT22;13241;51.208;4.432;2023-02-01T16:55:18;9.60;99.90
25300;DHT22;13241;51.208;4.432;2023-02-01T16:57:45;9.40;99.90
25300;DHT22;13241;51.208;4.432;2023-02-01T17:00:12;9.40;99.90
25300;DHT22;13241;51.208;4.432;2023-02-01T17:02:50;9.40;99.90
25300;DHT22;13241;51.208;4.432;2023-02-01T17:05:17;9.30;99.90
25300;DHT22;13241;51.208;4.432;2023-02-01T17:07:43;9.30;99.90
25300;DHT22;13241;51.208;4.432;2023-02-01T17:10:16;9.30;99.90
25300;DHT22;13241;51.208;4.432;2023-02-01T17:12:58;9.30;99.90
25300;DHT22;13241;51.208;4.432;2023-02-01T17:15:25;9.30;99.90
25300;DHT22;13241;51.208;4.432;2023-02-01T17:17:52;9.30;99.90
25300;DHT22;13241;51.208;4.432;2023-02-01T17:20:22;9.30;99.90
25300;DHT22;13241;51.208;4.432;2023-02-01T17:22:50;9.40;99.90
25300;DHT22;13241;51.208;4.432;2023-02-01T17:25:26;9.30;99.90
25300;DHT22;13241;51.208;4.432;2023-02-01T17:27:53;9.30;99.90
25300;DHT22;13241;51.208;4.432;2023-02-01T17:30:20;9.30;99.90
25300;DHT22;13241;51.208;4.432;2023-02-01T17:32:49;9.30;99.90
25300;DHT22;13241;51.208;4.432;2023-02-01T17:35:21;9.20;99.90
25300;DHT22;13241;51.208;4.432;2023-02-01T17:37:48;9.20;99.90
25300;DHT22;13241;51.208;4.432;2023-02-01T17:40:15;9.30;99.90
25300;DHT22;13241;51.208;4.432;2023-02-01T17:42:42;9.30;99.90
25300;DHT22;13241;51.208;4.432;2023-02-01T17:47:55;9.30;99.90
25300;DHT22;13241;51.208;4.432;2023-02-01T17:50:21;9.30;99.90
25300;DHT22;13241;51.208;4.432;2023-02-01T17:52:51;9.30;99.90
25300;DHT22;13241;51.208;4.432;2023-02-01T17:55:19;9.30;99.90
25300;DHT22;13241;51.208;4.432;2023-02-01T17:57:49;9.30;99.90
25300;DHT22;13241;51.208;4.432;2023-02-01T18:00:16;9.40;99.90
25300;DHT22;13241;51.208;4.432;2023-02-01T18:02:43;9.40;99.90
25300;DHT22;13241;51.208;4.432;2023-02-01T18:05:21;9.40;99.90
25300;DHT22;13241;51.208;4.432;2023-02-01T18:07:49;9.40;99.90
25300;DHT22;13241;51.208;4.432;2023-02-01T18:10:16;9.40;99.90
25300;DHT22;13241;51.208;4.432;2023-02-01T18:12:45;9.40;99.90
25300;DHT22;13241;51.208;4.432;2023-02-01T18:15:16;9.30;99.90
25300;DHT22;13241;51.208;4.432;2023-02-01T18:17:43;9.40;99.90